Portada
METAR-TAF:

METAR-TAF

Aeropuertos :

Morón de la Frontera, España

Base Aérea de Morón

latitud: 37-09N, longitud: 005-37W, altitud: 87 m

Observación

El informe se hizo hace 1 hora y 9 minutos, a las 07:00 UTC
Viento 2 kt con dirección variable
Temperatura 8°C
Humedad 93%
Presión 1026 hPa
Visibilidad: 8000 m
Escasas nubes a una altura de 1400 ft
niebla en bancos

METAR: LEMO 280700Z VRB02KT 8000 BCFG FEW014 08/07 Q1026 NOSIG

Hora: 10:09 (08:09 UTC)

Pronóstico

El informe se hizo hace 3 horas y 9 minutos, a las 05:00 UTC
Pronóstico válido del 28 a las 06 UTC al 28 a las 15 UTC
Viento 5 kt del este-noreste
Visibilidad 10 km o más
Cielo nuboso a una altura de 1200 ft
Evolucionando progresivamente
del 28 a las 07 UTC al 28 a las 09 UTC
Nubes dispersas a una altura de 2500 ft

TAF: LEMO 280500Z 2806/2815 06005KT 9999 BKN012 BECMG 2807/2809 SCT025

Observaciones y pronósticos meteorológicos de más de 4000 aeropuertos (mensajes METAR y TAF).

Los puntos amarillos y rojos representan las estaciones disponibles.

Ponga el ratón en el punto deseado para ver el nombre de la estación.

Haga clic para ver las observaciones y los pronósticos meteorológicos.

Para cambiar el mapa : haga clic en los botones verdes con una cruz de color negro para hacer un zoom, en el botón verde con un guión para alejar o en las flechas verdes para mapas adyacentes.


METAR-TAF: